Time;durP1;ratioP1;P1;durP2;ratioP2;P2;SDS_P1;SDS_P2;PMS_P1;PMS_P2;Temp;Humidity;BMP_temperature;BMP_pressure;BME280_temperature;BME280_humidity;BME280_pressure;Samples;Min_cycle;Max_cycle;Signal;HPM_P1;HPM_P2
2022/10/29 00:00:37;;;;;;;28.48;9.25;;;13.30;99.90;;;;;;6200967;22;20500;-85
2022/10/29 00:03:03;;;;;;;24.73;8.98;;;13.20;99.90;;;;;;6226466;23;20012;-86
2022/10/29 00:05:29;;;;;;;30.80;9.50;;;13.20;99.90;;;;;;6201592;22;20008;-85
2022/10/29 00:07:55;;;;;;;31.15;8.70;;;13.20;99.90;;;;;;6201090;22;20008;-86
2022/10/29 00:10:20;;;;;;;31.50;8.82;;;13.10;99.90;;;;;;6199326;22;20396;-85
2022/10/29 00:12:46;;;;;;;31.60;8.60;;;13.10;99.90;;;;;;6199967;22;20020;-85
2022/10/29 00:15:12;;;;;;;26.00;8.05;;;13.20;99.90;;;;;;6200644;22;20019;-85
2022/10/29 00:17:41;;;;;;;31.42;9.13;;;13.20;99.90;;;;;;6200544;22;20032;-85
2022/10/29 00:20:07;;;;;;;28.88;8.55;;;13.20;99.90;;;;;;6201714;22;20027;-85
2022/10/29 00:22:33;;;;;;;40.83;9.68;;;13.10;99.90;;;;;;6200801;22;20390;-85
2022/10/29 00:24:58;;;;;;;33.63;10.18;;;13.50;99.90;;;;;;6225561;22;20092;-85
2022/10/29 00:27:25;;;;;;;32.75;10.82;;;13.50;99.90;;;;;;6200001;22;20088;-86
2022/10/29 00:29:50;;;;;;;35.55;10.23;;;13.60;99.90;;;;;;6227134;23;20448;-85
2022/10/29 00:32:16;;;;;;;37.50;9.90;;;13.40;99.90;;;;;;6200781;22;20035;-85
2022/10/29 00:34:45;;;;;;;35.20;9.60;;;13.50;99.90;;;;;;6199688;22;20250;-86
2022/10/29 00:37:10;;;;;;;37.15;10.25;;;13.60;99.90;;;;;;6226689;22;20020;-86
2022/10/29 00:39:36;;;;;;;31.35;9.90;;;13.60;99.90;;;;;;6200355;22;20427;-85
2022/10/29 00:42:03;;;;;;;37.90;10.02;;;13.40;99.90;;;;;;6197202;22;20020;-85
2022/10/29 00:44:34;;;;;;;40.17;10.27;;;13.40;99.90;;;;;;6199803;22;20020;-86
2022/10/29 00:47:02;;;;;;;29.17;9.35;;;13.40;99.90;;;;;;6199911;22;20012;-85
2022/10/29 00:49:29;;;;;;;38.63;9.50;;;13.30;99.90;;;;;;6201334;22;20065;-85
2022/10/29 00:51:56;;;;;;;26.80;9.43;;;13.10;99.90;;;;;;6226920;23;20072;-85
2022/10/29 00:54:21;;;;;;;37.90;9.40;;;13.20;99.90;;;;;;6200024;22;20019;-85
2022/10/29 00:56:52;;;;;;;32.60;9.55;;;13.10;99.90;;;;;;6224483;22;20019;-85
2022/10/29 00:59:18;;;;;;;29.08;9.93;;;13.10;99.90;;;;;;6201280;22;20019;-85
2022/10/29 01:01:46;;;;;;;27.58;8.23;;;13.00;99.90;;;;;;6201042;22;20020;-85
2022/10/29 01:04:12;;;;;;;30.35;9.18;;;12.90;99.90;;;;;;6227337;23;20051;-85
2022/10/29 01:06:39;;;;;;;39.85;9.77;;;13.00;99.90;;;;;;6227310;23;20008;-84
2022/10/29 01:09:05;;;;;;;28.00;7.63;;;13.00;99.90;;;;;;6200932;23;20016;-85
2022/10/29 01:11:58;;;;;;;36.85;9.20;;;12.80;99.90;;;;;;6199058;22;20023;-85
2022/10/29 01:14:59;;;;;;;32.15;9.70;;;12.80;99.90;;;;;;6201914;22;20012;-85
2022/10/29 01:17:31;;;;;;;24.52;8.35;;;12.80;99.90;;;;;;6200811;22;20009;-85
2022/10/29 01:20:09;;;;;;;30.20;8.32;;;12.70;99.90;;;;;;6200976;22;20571;-86
2022/10/29 01:22:49;;;;;;;28.10;8.23;;;12.70;99.90;;;;;;6201395;22;20023;-86
2022/10/29 01:25:31;;;;;;;29.83;8.55;;;12.80;99.90;;;;;;6198833;22;20004;-84
2022/10/29 01:28:42;;;;;;;33.53;9.20;;;12.80;99.90;;;;;;6199368;22;20112;-85
2022/10/29 01:31:18;;;;;;;25.02;7.97;;;12.70;99.90;;;;;;6199173;22;20508;-86
2022/10/29 01:34:03;;;;;;;40.38;9.43;;;12.70;99.90;;;;;;6199465;22;20027;-86
2022/10/29 01:36:39;;;;;;;31.95;8.40;;;12.60;99.90;;;;;;6201008;23;20097;-85
2022/10/29 01:39:30;;;;;;;21.55;8.43;;;12.70;99.90;;;;;;6223999;23;20673;-85
2022/10/29 01:42:14;;;;;;;19.10;7.93;;;12.70;99.90;;;;;;6225513;22;20059;-85
2022/10/29 01:44:50;;;;;;;16.52;6.57;;;12.60;99.90;;;;;;6200504;22;20019;-85
2022/10/29 01:47:18;;;;;;;19.40;7.45;;;12.50;99.90;;;;;;6224819;23;20458;-85
2022/10/29 01:50:07;;;;;;;26.20;8.63;;;12.60;99.90;;;;;;6200146;22;20260;-85
2022/10/29 01:52:34;;;;;;;19.42;7.70;;;12.60;99.90;;;;;;6200449;22;20016;-84
2022/10/29 01:55:01;;;;;;;30.98;9.02;;;12.40;99.90;;;;;;6198202;23;20028;-85
2022/10/29 01:57:40;;;;;;;22.65;8.35;;;12.60;99.90;;;;;;6223448;23;20023;-85
2022/10/29 02:00:09;;;;;;;22.80;8.40;;;12.50;99.90;;;;;;6200154;23;20513;-85
2022/10/29 02:02:56;;;;;;;11.00;6.30;;;12.50;99.90;;;;;;6199784;22;20016;-85
2022/10/29 02:05:37;;;;;;;17.17;7.50;;;12.40;99.90;;;;;;6199486;22;20013;-85
2022/10/29 02:08:12;;;;;;;26.00;7.65;;;12.40;99.90;;;;;;6199690;22;20032;-85
2022/10/29 02:10:49;;;;;;;22.45;7.82;;;12.20;99.90;;;;;;6198067;22;20016;-85
2022/10/29 02:13:18;;;;;;;21.50;7.82;;;12.20;99.90;;;;;;6198927;22;20257;-85
2022/10/29 02:15:48;;;;;;;45.42;9.25;;;12.30;99.90;;;;;;6200740;22;20016;-85
2022/10/29 02:18:15;;;;;;;19.23;7.63;;;12.30;99.90;;;;;;6225233;23;20055;-85
2022/10/29 02:20:41;;;;;;;57.13;9.88;;;12.20;99.90;;;;;;6225594;23;20020;-85
2022/10/29 02:23:07;;;;;;;39.75;8.52;;;12.30;99.90;;;;;;6201138;22;20031;-85
2022/10/29 02:25:33;;;;;;;81.07;10.32;;;12.30;99.90;;;;;;6198636;22;20012;-85
2022/10/29 02:27:59;;;;;;;35.05;7.20;;;12.40;99.90;;;;;;6224787;22;20031;-85
2022/10/29 02:30:24;;;;;;;34.25;7.05;;;12.40;99.90;;;;;;6200139;22;20016;-85
2022/10/29 02:32:53;;;;;;;18.02;6.30;;;12.30;99.90;;;;;;6200573;22;20432;-85
2022/10/29 02:35:19;;;;;;;27.83;6.32;;;12.30;99.90;;;;;;6200375;22;20016;-85
2022/10/29 02:37:44;;;;;;;11.90;5.95;;;12.20;99.90;;;;;;6201138;22;20012;-86
2022/10/29 02:40:11;;;;;;;52.15;7.53;;;12.30;99.90;;;;;;6200105;22;20020;-86
2022/10/29 02:42:36;;;;;;;10.50;6.05;;;12.20;99.90;;;;;;6223772;23;20020;-86
2022/10/29 02:45:02;;;;;;;19.83;6.05;;;12.20;99.90;;;;;;6227291;23;20008;-85
2022/10/29 02:47:28;;;;;;;15.25;5.95;;;12.20;99.90;;;;;;6200121;22;20104;-85
2022/10/29 02:49:57;;;;;;;14.73;5.65;;;12.10;99.90;;;;;;6226091;22;20012;-85
2022/10/29 02:52:22;;;;;;;14.20;6.22;;;12.10;99.90;;;;;;6200851;22;20069;-85
2022/10/29 02:54:48;;;;;;;25.83;7.20;;;12.20;99.90;;;;;;6200282;22;20016;-85
2022/10/29 02:57:14;;;;;;;171.13;13.57;;;12.30;99.90;;;;;;6199265;22;20088;-86
2022/10/29 02:59:39;;;;;;;98.93;11.43;;;12.20;99.90;;;;;;6226083;22;20027;-86
2022/10/29 03:02:05;;;;;;;29.00;5.93;;;12.20;99.90;;;;;;6225400;22;20012;-85
2022/10/29 03:04:30;;;;;;;16.58;6.03;;;12.20;99.90;;;;;;6200810;22;20012;-85
2022/10/29 03:06:56;;;;;;;10.82;5.20;;;12.30;99.90;;;;;;6200290;22;20344;-86
2022/10/29 03:09:22;;;;;;;14.25;6.82;;;12.20;99.90;;;;;;6200464;22;20075;-85
2022/10/29 03:11:47;;;;;;;10.60;6.28;;;12.30;99.90;;;;;;6199657;22;20017;-85
2022/10/29 03:14:13;;;;;;;13.85;6.25;;;12.20;99.90;;;;;;6202430;22;20348;-85
2022/10/29 03:16:39;;;;;;;15.57;5.53;;;12.20;99.90;;;;;;6201812;22;20014;-85
2022/10/29 03:19:04;;;;;;;12.25;6.47;;;12.40;99.90;;;;;;6227792;22;20012;-85
2022/10/29 03:21:30;;;;;;;10.63;7.07;;;12.30;99.90;;;;;;6202488;22;20089;-86
2022/10/29 03:23:56;;;;;;;28.92;8.10;;;12.40;99.90;;;;;;6200960;22;20016;-86
2022/10/29 03:26:22;;;;;;;30.10;8.25;;;12.40;99.90;;;;;;6224443;23;20436;-85
2022/10/29 03:28:47;;;;;;;15.88;7.82;;;12.40;99.90;;;;;;6202473;22;20122;-87
2022/10/29 03:31:16;;;;;;;11.80;7.20;;;12.50;99.90;;;;;;6202693;22;20100;-85
2022/10/29 03:33:41;;;;;;;13.43;8.10;;;12.60;99.90;;;;;;6202778;22;20016;-85
2022/10/29 03:36:07;;;;;;;16.63;8.00;;;12.60;99.90;;;;;;6203128;22;20016;-86
2022/10/29 03:38:34;;;;;;;15.82;8.40;;;12.60;99.90;;;;;;6202971;22;20046;-86
2022/10/29 03:41:00;;;;;;;22.65;8.48;;;12.60;99.90;;;;;;6201938;22;20367;-85
2022/10/29 03:43:29;;;;;;;16.38;7.55;;;12.70;99.90;;;;;;6226836;23;20016;-85
2022/10/29 03:45:58;;;;;;;47.88;10.05;;;12.70;99.90;;;;;;6203852;23;20020;-85
2022/10/29 03:48:27;;;;;;;17.35;8.45;;;12.80;99.90;;;;;;6203684;22;20068;-86
2022/10/29 03:51:04;;;;;;;30.27;9.63;;;12.80;99.90;;;;;;6203272;22;20012;-85
2022/10/29 03:53:34;;;;;;;18.75;9.00;;;12.80;99.90;;;;;;6177586;23;20127;-86
2022/10/29 03:56:00;;;;;;;31.63;10.00;;;12.80;99.90;;;;;;6173125;23;20047;-85
2022/10/29 03:58:26;;;;;;;30.65;9.68;;;12.80;99.90;;;;;;6176738;23;20518;-86
2022/10/29 04:01:00;;;;;;;40.88;11.93;;;12.90;99.90;;;;;;6177705;23;20507;-86
2022/10/29 04:03:28;;;;;;;34.20;11.33;;;12.80;99.90;;;;;;6177122;23;20389;-85
2022/10/29 04:05:54;;;;;;;25.80;10.82;;;12.90;99.90;;;;;;6202637;23;20012;-85
2022/10/29 04:08:20;;;;;;;24.83;9.75;;;12.80;99.90;;;;;;6203058;23;20032;-85
2022/10/29 04:10:49;;;;;;;51.17;11.85;;;13.00;99.90;;;;;;6200770;22;20016;-85
2022/10/29 04:13:15;;;;;;;26.83;10.77;;;13.00;99.90;;;;;;6175646;22;20434;-85
2022/10/29 04:15:41;;;;;;;30.90;10.77;;;12.90;99.90;;;;;;6177088;23;20392;-84
2022/10/29 04:18:08;;;;;;;35.38;11.45;;;13.00;99.90;;;;;;6176067;23;20035;-85
2022/10/29 04:20:34;;;;;;;38.55;12.18;;;12.90;99.90;;;;;;6202669;23;20012;-86
2022/10/29 04:23:00;;;;;;;56.40;12.20;;;13.00;99.90;;;;;;6176352;23;20020;-85
2022/10/29 04:25:25;;;;;;;34.58;11.90;;;12.90;99.90;;;;;;6175735;23;20404;-86
2022/10/29 04:27:54;;;;;;;47.88;13.45;;;13.00;99.90;;;;;;6201234;23;20404;-85
2022/10/29 04:30:20;;;;;;;39.67;11.95;;;13.00;99.90;;;;;;6177557;23;20018;-86
2022/10/29 04:32:46;;;;;;;47.30;12.43;;;13.00;99.90;;;;;;6178059;23;20025;-85
2022/10/29 04:35:11;;;;;;;20.85;11.68;;;13.10;99.90;;;;;;6178367;23;20016;-86
2022/10/29 04:37:40;;;;;;;41.85;13.40;;;13.10;99.90;;;;;;6177875;23;20020;-85
2022/10/29 04:40:06;;;;;;;48.22;14.32;;;13.10;99.90;;;;;;6176250;23;20064;-85
2022/10/29 04:42:36;;;;;;;47.55;13.57;;;13.10;99.90;;;;;;6175357;23;20067;-85
2022/10/29 04:45:03;;;;;;;39.30;14.20;;;13.20;99.90;;;;;;6178020;23;20012;-85
2022/10/29 04:47:38;;;;;;;38.58;13.75;;;13.20;99.90;;;;;;6178320;23;20012;-85
2022/10/29 04:50:04;;;;;;;33.90;13.32;;;13.20;99.90;;;;;;6178459;23;20009;-86
2022/10/29 04:52:29;;;;;;;63.42;17.45;;;13.10;99.90;;;;;;6191086;23;20020;-86
2022/10/29 04:54:55;;;;;;;50.25;14.57;;;13.20;99.90;;;;;;6226816;22;20024;-86
2022/10/29 04:57:21;;;;;;;36.13;14.07;;;13.30;99.90;;;;;;6227292;22;20020;-86
2022/10/29 04:59:55;;;;;;;56.35;17.08;;;13.20;99.90;;;;;;6227236;22;20073;-85
2022/10/29 05:02:21;;;;;;;65.15;17.45;;;13.30;99.90;;;;;;6203079;22;20020;-85
2022/10/29 05:04:52;;;;;;;47.78;15.43;;;13.30;99.90;;;;;;6203369;22;20016;-85
2022/10/29 05:07:18;;;;;;;43.17;14.90;;;13.40;99.90;;;;;;6229050;22;20012;-85
2022/10/29 05:09:44;;;;;;;45.25;15.93;;;13.40;99.90;;;;;;6202734;22;20031;-85
2022/10/29 05:12:09;;;;;;;77.03;17.55;;;13.30;99.90;;;;;;6201002;22;20019;-85
2022/10/29 05:14:35;;;;;;;44.38;15.45;;;13.30;99.90;;;;;;6203793;22;20465;-85
2022/10/29 05:17:01;;;;;;;69.53;16.70;;;13.30;99.90;;;;;;6204141;22;20099;-86
2022/10/29 05:19:26;;;;;;;45.53;15.60;;;13.30;99.90;;;;;;6227309;23;20023;-85
2022/10/29 05:21:52;;;;;;;55.75;15.82;;;13.50;99.90;;;;;;6227598;22;20105;-85
2022/10/29 05:24:21;;;;;;;50.75;15.63;;;13.30;99.90;;;;;;6201821;22;20043;-85
2022/10/29 05:26:46;;;;;;;69.88;17.73;;;13.30;99.90;;;;;;6200979;22;20145;-86
2022/10/29 05:29:12;;;;;;;50.85;16.75;;;13.40;99.90;;;;;;6229073;22;20020;-86
2022/10/29 05:31:47;;;;;;;32.03;13.95;;;13.50;99.90;;;;;;6202094;22;20075;-85
2022/10/29 05:34:13;;;;;;;98.97;16.95;;;13.50;99.90;;;;;;6204226;22;20008;-86
2022/10/29 05:36:38;;;;;;;38.50;15.20;;;13.40;99.90;;;;;;6228071;22;20506;-85
2022/10/29 05:39:04;;;;;;;65.97;15.70;;;13.60;99.90;;;;;;6226843;23;20027;-85
2022/10/29 05:41:30;;;;;;;95.15;20.40;;;13.40;99.90;;;;;;6201901;22;20012;-85
2022/10/29 05:43:56;;;;;;;32.03;14.20;;;13.60;99.90;;;;;;6202854;22;20016;-86
2022/10/29 05:46:21;;;;;;;90.00;15.93;;;13.60;99.90;;;;;;6228204;22;20008;-85
2022/10/29 05:48:47;;;;;;;100.40;16.63;;;13.50;99.90;;;;;;6228313;22;20020;-86
2022/10/29 05:51:13;;;;;;;40.72;13.40;;;13.50;99.90;;;;;;6204755;22;20005;-85
2022/10/29 05:53:41;;;;;;;38.17;11.82;;;13.60;99.90;;;;;;6233626;22;20022;-85
2022/10/29 05:56:07;;;;;;;53.53;13.50;;;13.60;99.90;;;;;;6205797;22;20054;-86
2022/10/29 05:58:33;;;;;;;47.92;12.82;;;13.60;99.90;;;;;;6231588;22;20019;-86
2022/10/29 06:00:58;;;;;;;51.35;12.05;;;13.70;99.90;;;;;;6233724;22;20016;-85
2022/10/29 06:03:24;;;;;;;75.07;13.95;;;13.70;99.90;;;;;;6233697;22;20499;-86
2022/10/29 06:05:50;;;;;;;28.27;10.07;;;13.60;99.90;;;;;;6234172;22;20056;-85
2022/10/29 06:08:19;;;;;;;31.80;10.82;;;13.70;99.90;;;;;;6233772;22;20467;-86
2022/10/29 06:10:44;;;;;;;65.07;12.68;;;13.70;99.90;;;;;;6231586;22;20012;-85
2022/10/29 06:13:21;;;;;;;51.83;11.75;;;13.70;99.90;;;;;;6233002;22;20343;-86
2022/10/29 06:15:54;;;;;;;54.00;11.65;;;13.60;99.90;;;;;;6232166;22;20030;-86
2022/10/29 06:18:23;;;;;;;34.13;10.63;;;13.70;99.90;;;;;;6208737;22;20020;-86
2022/10/29 06:20:53;;;;;;;51.15;11.80;;;13.70;99.90;;;;;;6232965;22;20019;-85
2022/10/29 06:23:22;;;;;;;54.38;12.93;;;13.80;99.90;;;;;;6208524;22;20157;-85
2022/10/29 06:25:48;;;;;;;33.25;11.80;;;13.60;99.90;;;;;;6230847;22;20012;-85
2022/10/29 06:28:15;;;;;;;70.38;14.30;;;13.80;99.90;;;;;;6230253;22;20012;-86
2022/10/29 06:30:46;;;;;;;39.70;12.88;;;13.80;99.90;;;;;;6232711;22;20369;-86
2022/10/29 06:33:12;;;;;;;51.72;13.05;;;13.70;99.90;;;;;;6206880;22;20066;-86
2022/10/29 06:35:37;;;;;;;42.75;13.48;;;13.80;99.90;;;;;;6257183;22;20460;-86
2022/10/29 06:38:03;;;;;;;38.67;13.00;;;13.80;99.90;;;;;;6232270;22;20098;-85
2022/10/29 06:40:32;;;;;;;37.83;14.02;;;13.70;99.90;;;;;;6205912;22;20012;-86
2022/10/29 06:43:03;;;;;;;40.42;13.95;;;13.90;99.90;;;;;;6230265;22;20064;-85
2022/10/29 06:45:30;;;;;;;56.92;15.05;;;13.90;99.90;;;;;;6206974;22;20012;-85
2022/10/29 06:47:55;;;;;;;59.78;16.08;;;13.90;99.90;;;;;;6208645;22;20030;-86
2022/10/29 06:50:21;;;;;;;39.80;15.43;;;13.80;99.90;;;;;;6233541;22;20336;-85
2022/10/29 06:53:04;;;;;;;39.42;14.60;;;13.90;99.90;;;;;;6259741;22;20369;-85
2022/10/29 06:55:31;;;;;;;39.97;14.48;;;13.80;99.90;;;;;;6233319;22;20227;-86
2022/10/29 06:58:03;;;;;;;41.17;15.32;;;13.90;99.90;;;;;;6233314;22;20020;-85
2022/10/29 07:00:30;;;;;;;36.92;14.70;;;13.90;99.90;;;;;;6234625;22;20012;-85
2022/10/29 07:02:56;;;;;;;35.33;15.40;;;14.00;99.90;;;;;;6208970;22;20038;-86
2022/10/29 07:05:22;;;;;;;34.22;15.52;;;14.00;99.90;;;;;;6234331;22;20456;-85
2022/10/29 07:07:48;;;;;;;34.10;14.35;;;14.20;99.90;;;;;;6233904;22;20075;-85
2022/10/29 07:10:14;;;;;;;40.28;15.73;;;14.00;99.90;;;;;;6259092;22;20543;-86
2022/10/29 07:12:44;;;;;;;37.97;16.35;;;14.00;99.90;;;;;;6231930;22;20100;-85
2022/10/29 07:15:10;;;;;;;49.60;15.48;;;14.20;99.90;;;;;;6233560;22;20087;-86
2022/10/29 07:17:37;;;;;;;39.95;15.20;;;14.20;99.90;;;;;;6258547;22;20026;-85
2022/10/29 07:20:04;;;;;;;44.00;15.80;;;14.20;99.90;;;;;;6233371;22;20038;-85
2022/10/29 07:22:30;;;;;;;75.32;17.02;;;14.30;99.90;;;;;;6233861;22;20658;-86
2022/10/29 07:24:55;;;;;;;65.07;16.60;;;14.20;99.90;;;;;;6232718;22;20012;-85
2022/10/29 07:27:24;;;;;;;45.60;16.52;;;14.30;99.90;;;;;;6231627;22;20014;-86
2022/10/29 07:29:49;;;;;;;199.05;23.10;;;14.30;99.90;;;;;;6233714;22;20015;-85
2022/10/29 07:32:15;;;;;;;84.03;17.60;;;14.30;99.90;;;;;;6232594;22;20016;-86
2022/10/29 07:34:41;;;;;;;45.45;14.70;;;14.20;99.90;;;;;;6257713;22;20020;-85
2022/10/29 07:37:07;;;;;;;39.38;14.13;;;14.30;99.90;;;;;;6232006;22;20058;-86
2022/10/29 07:39:32;;;;;;;58.80;16.30;;;14.40;99.90;;;;;;6206268;22;20012;-85
2022/10/29 07:41:58;;;;;;;84.25;17.48;;;14.40;99.90;;;;;;6229668;22;21958;-85
2022/10/29 07:44:24;;;;;;;71.93;17.20;;;14.40;99.90;;;;;;6231188;22;20064;-85
2022/10/29 07:46:52;;;;;;;52.45;16.40;;;14.30;99.90;;;;;;6231493;22;20015;-86
2022/10/29 07:49:18;;;;;;;47.63;16.13;;;14.40;99.90;;;;;;6206646;22;20016;-85
2022/10/29 07:51:43;;;;;;;46.38;16.85;;;14.40;99.90;;;;;;6257471;22;20016;-85
2022/10/29 07:54:09;;;;;;;41.30;16.15;;;14.50;99.90;;;;;;6230450;22;20104;-85
2022/10/29 07:56:35;;;;;;;55.53;18.60;;;14.60;99.90;;;;;;6257074;22;20425;-85
2022/10/29 07:59:03;;;;;;;55.58;18.05;;;14.40;99.90;;;;;;6234310;22;20102;-86
2022/10/29 08:01:29;;;;;;;53.97;18.17;;;14.50;99.90;;;;;;6233406;22;20012;-85
2022/10/29 08:03:55;;;;;;;50.70;18.20;;;14.40;99.90;;;;;;6232889;22;20026;-86
2022/10/29 08:06:20;;;;;;;46.40;18.55;;;14.40;99.90;;;;;;6259625;22;20023;-86
2022/10/29 08:08:46;;;;;;;44.75;18.77;;;14.40;99.90;;;;;;6233749;22;20130;-84
2022/10/29 08:11:12;;;;;;;50.63;19.98;;;14.60;99.90;;;;;;6230760;22;20270;-86
2022/10/29 08:13:40;;;;;;;51.58;21.15;;;14.70;99.90;;;;;;6233229;22;20148;-85
2022/10/29 08:16:06;;;;;;;58.97;20.90;;;14.60;99.90;;;;;;6260053;22;20051;-85
2022/10/29 08:18:32;;;;;;;59.35;21.63;;;14.60;99.90;;;;;;6209858;22;20081;-85
2022/10/29 08:21:02;;;;;;;47.17;21.20;;;14.80;99.90;;;;;;6234226;22;20022;-85
2022/10/29 08:23:28;;;;;;;70.43;24.17;;;14.80;99.90;;;;;;6259156;22;20027;-85
2022/10/29 08:25:59;;;;;;;41.85;20.10;;;14.90;99.90;;;;;;6232367;22;20008;-85
2022/10/29 08:28:24;;;;;;;52.05;21.70;;;15.10;99.90;;;;;;6207990;22;20016;-85
2022/10/29 08:30:50;;;;;;;42.42;20.10;;;15.00;99.90;;;;;;6233831;22;20075;-84
2022/10/29 08:33:20;;;;;;;48.72;22.27;;;14.90;99.90;;;;;;6233249;22;20034;-86
2022/10/29 08:35:49;;;;;;;38.70;21.30;;;14.90;99.90;;;;;;6207919;22;20016;-85
2022/10/29 08:38:14;;;;;;;40.47;20.27;;;14.90;99.90;;;;;;6233319;22;20405;-86
2022/10/29 08:41:00;;;;;;;37.63;21.45;;;14.90;99.90;;;;;;6232088;22;20164;-85
2022/10/29 08:43:58;;;;;;;42.40;21.88;;;15.20;99.90;;;;;;6232574;22;20456;-86
2022/10/29 08:46:51;;;;;;;41.17;21.08;;;15.20;99.90;;;;;;6209164;22;20056;-85
2022/10/29 08:49:29;;;;;;;40.35;20.30;;;14.80;99.90;;;;;;6208082;22;20022;-86
2022/10/29 08:52:10;;;;;;;41.28;21.23;;;15.20;99.90;;;;;;6233507;22;20416;-85
2022/10/29 08:54:40;;;;;;;40.67;20.75;;;15.20;99.90;;;;;;6206697;22;20405;-86
2022/10/29 08:57:18;;;;;;;41.28;19.55;;;15.10;99.90;;;;;;6206169;22;20012;-85
2022/10/29 09:00:06;;;;;;;41.40;20.08;;;15.20;99.90;;;;;;6206680;22;20234;-85
2022/10/29 09:02:32;;;;;;;38.85;19.80;;;15.10;99.90;;;;;;6232190;22;20012;-85
2022/10/29 09:04:58;;;;;;;38.58;20.20;;;15.10;99.90;;;;;;6231149;22;20471;-86
2022/10/29 09:08:06;;;;;;;37.92;21.05;;;15.20;99.90;;;;;;6231221;22;20019;-86
2022/10/29 09:11:03;;;;;;;40.58;21.13;;;15.50;99.90;;;;;;6246834;22;20016;-85
2022/10/29 09:13:45;;;;;;;36.55;20.48;;;15.40;99.90;;;;;;6234223;22;20320;-86
2022/10/29 09:16:47;;;;;;;39.88;21.25;;;15.40;99.90;;;;;;6205922;22;20076;-85
2022/10/29 09:19:54;;;;;;;38.63;20.90;;;15.60;99.90;;;;;;6242058;22;20019;-85
2022/10/29 09:22:41;;;;;;;36.47;21.08;;;15.50;99.90;;;;;;6206300;22;20016;-85
2022/10/29 09:25:28;;;;;;;40.33;20.13;;;15.70;99.90;;;;;;6204223;22;20131;-85
2022/10/29 09:28:32;;;;;;;38.28;20.35;;;15.90;99.90;;;;;;6204155;22;20101;-85
2022/10/29 09:31:23;;;;;;;43.13;20.50;;;16.00;99.90;;;;;;6247382;22;20433;-85
2022/10/29 09:33:52;;;;;;;32.47;19.35;;;16.00;99.90;;;;;;6204677;22;20098;-85
2022/10/29 09:36:20;;;;;;;35.33;18.98;;;15.90;99.90;;;;;;6205754;22;20024;-86
2022/10/29 09:38:55;;;;;;;30.83;19.25;;;15.80;99.90;;;;;;6231743;22;20457;-85
2022/10/29 09:41:27;;;;;;;31.95;17.88;;;15.60;99.90;;;;;;6203969;22;20038;-86
2022/10/29 09:44:01;;;;;;;32.47;16.70;;;15.70;99.90;;;;;;6205817;22;20637;-86
2022/10/29 09:46:43;;;;;;;35.67;17.47;;;15.70;99.90;;;;;;6205024;22;20144;-85
2022/10/29 09:49:30;;;;;;;33.55;16.90;;;15.70;99.90;;;;;;6230738;22;20242;-85
2022/10/29 09:52:02;;;;;;;30.63;17.10;;;15.70;99.90;;;;;;6204848;22;20011;-86
2022/10/29 09:54:30;;;;;;;29.10;15.90;;;15.60;99.90;;;;;;6255122;22;20060;-85
2022/10/29 09:56:59;;;;;;;26.02;16.88;;;15.80;99.90;;;;;;6227300;22;20015;-84
2022/10/29 09:59:37;;;;;;;28.67;16.00;;;15.70;99.90;;;;;;6204971;22;20361;-86
2022/10/29 10:02:17;;;;;;;26.80;16.42;;;15.90;99.90;;;;;;6230449;22;20448;-85
2022/10/29 10:04:46;;;;;;;39.17;16.15;;;16.10;99.90;;;;;;6230510;22;20012;-85
2022/10/29 10:07:19;;;;;;;27.67;15.63;;;16.20;99.90;;;;;;6205972;22;20477;-86
2022/10/29 10:09:58;;;;;;;29.05;16.42;;;16.00;99.90;;;;;;6204583;22;20050;-86
2022/10/29 10:12:43;;;;;;;29.35;15.60;;;16.50;99.90;;;;;;6204100;22;20623;-85
2022/10/29 10:15:19;;;;;;;;;;;16.70;99.90;;;;;;6231420;22;20661;-85
2022/10/29 10:18:14;;;;;;;28.90;15.27;;;16.60;99.90;;;;;;6206237;22;19942;-85
2022/10/29 10:21:07;;;;;;;29.88;16.15;;;16.70;99.90;;;;;;6205602;22;20399;-86
2022/10/29 10:23:50;;;;;;;27.02;15.30;;;17.00;99.90;;;;;;6230543;22;20456;-85
2022/10/29 10:26:25;;;;;;;25.63;14.73;;;17.10;99.90;;;;;;6203229;22;20019;-85
2022/10/29 10:29:10;;;;;;;;;;;16.90;99.90;;;;;;6231257;22;20012;-85
2022/10/29 10:31:36;;;;;;;25.00;14.53;;;16.90;99.90;;;;;;6207064;22;19986;-85
2022/10/29 10:34:15;;;;;;;27.30;14.27;;;16.70;99.90;;;;;;6205559;22;20289;-86
2022/10/29 10:36:54;;;;;;;22.20;13.73;;;16.90;99.90;;;;;;6207624;22;20027;-85
2022/10/29 10:39:34;;;;;;;24.40;15.27;;;17.00;99.90;;;;;;6206874;22;20016;-85
2022/10/29 10:42:05;;;;;;;23.50;14.23;;;17.30;99.90;;;;;;6203148;22;20012;-85
2022/10/29 10:44:32;;;;;;;24.92;13.85;;;17.70;99.90;;;;;;6257067;22;20072;-85
2022/10/29 10:47:05;;;;;;;23.38;12.95;;;17.50;99.90;;;;;;6207239;22;20087;-86
2022/10/29 10:49:36;;;;;;;26.95;14.38;;;17.60;99.90;;;;;;6231279;22;20094;-86
2022/10/29 10:52:11;;;;;;;23.20;13.57;;;17.50;99.90;;;;;;6231407;22;20110;-85
2022/10/29 10:54:45;;;;;;;25.35;13.63;;;17.70;99.90;;;;;;6256399;22;20030;-85
2022/10/29 10:57:10;;;;;;;26.90;12.75;;;17.90;99.90;;;;;;6254349;22;20118;-85
2022/10/29 10:59:50;;;;;;;21.90;13.20;;;18.00;99.90;;;;;;6208581;22;20087;-85
2022/10/29 11:02:55;;;;;;;23.45;12.55;;;17.90;99.90;;;;;;6205977;22;20019;-85
2022/10/29 11:05:30;;;;;;;24.60;12.65;;;18.10;99.90;;;;;;6249307;22;20016;-85
2022/10/29 11:08:24;;;;;;;23.77;12.75;;;18.30;99.90;;;;;;6233815;22;20039;-86
2022/10/29 11:11:28;;;;;;;22.30;11.02;;;18.40;99.90;;;;;;6234122;22;20015;-86
2022/10/29 11:13:59;;;;;;;21.27;11.57;;;18.40;99.90;;;;;;6266668;22;20011;-85
2022/10/29 11:17:03;;;;;;;19.15;11.52;;;18.40;99.90;;;;;;6210633;22;20020;-85
2022/10/29 11:19:40;;;;;;;18.80;10.57;;;18.50;99.90;;;;;;6253580;22;20385;-85
2022/10/29 11:22:06;;;;;;;19.38;10.77;;;18.50;99.90;;;;;;6207756;22;20031;-85
2022/10/29 11:25:30;;;;;;;19.50;10.70;;;18.80;99.90;;;;;;6207254;22;20016;-85
2022/10/29 11:28:33;;;;;;;22.13;10.52;;;19.00;99.90;;;;;;6264586;22;20026;-85
2022/10/29 11:31:24;;;;;;;17.70;10.13;;;19.10;99.90;;;;;;6206905;22;20438;-85
2022/10/29 11:34:34;;;;;;;20.23;10.63;;;19.20;99.90;;;;;;6233191;22;20023;-85
2022/10/29 11:37:12;;;;;;;19.10;9.68;;;19.40;99.90;;;;;;6249768;22;20019;-85
2022/10/29 11:40:09;;;;;;;18.58;9.45;;;19.60;99.90;;;;;;6205575;22;20072;-86
2022/10/29 11:42:35;;;;;;;19.05;8.80;;;19.70;99.90;;;;;;6219559;22;20471;-85
2022/10/29 11:45:01;;;;;;;15.32;8.95;;;19.60;99.90;;;;;;6230276;22;20270;-86
2022/10/29 11:48:17;;;;;;;15.75;8.30;;;19.60;99.90;;;;;;6204619;22;20852;-86
2022/10/29 11:51:00;;;;;;;19.02;8.48;;;19.40;99.90;;;;;;6236407;22;20115;-85
2022/10/29 11:53:57;;;;;;;17.08;8.18;;;19.50;99.90;;;;;;6230514;22;20030;-83
2022/10/29 11:56:40;;;;;;;18.98;8.40;;;19.80;99.90;;;;;;6204538;22;20026;-85
2022/10/29 11:59:18;;;;;;;16.98;9.35;;;19.60;99.90;;;;;;6205581;22;20240;-85
2022/10/29 12:02:02;;;;;;;18.13;9.32;;;19.50;99.90;;;;;;6205282;22;20012;-85
2022/10/29 12:04:52;;;;;;;13.82;8.60;;;19.60;99.90;;;;;;6208730;22;20015;-85
2022/10/29 12:07:26;;;;;;;20.00;8.82;;;19.50;99.90;;;;;;6209534;22;20008;-85
2022/10/29 12:10:17;;;;;;;12.70;8.10;;;19.40;99.90;;;;;;6207673;22;20699;-85
2022/10/29 12:13:09;;;;;;;13.50;7.97;;;19.50;99.90;;;;;;6207365;22;20015;-85
2022/10/29 12:15:34;;;;;;;21.33;8.82;;;19.50;99.90;;;;;;6244408;22;20210;-85
2022/10/29 12:18:05;;;;;;;18.90;8.75;;;19.50;99.90;;;;;;6207785;22;20347;-85
2022/10/29 12:20:59;;;;;;;18.92;8.88;;;19.50;99.90;;;;;;6235523;22;20440;-85
2022/10/29 12:23:49;;;;;;;19.48;8.63;;;19.20;99.90;;;;;;6209604;22;20015;-85
2022/10/29 12:26:34;;;;;;;19.33;8.30;;;19.30;99.90;;;;;;6209838;22;20072;-85
2022/10/29 12:29:10;;;;;;;22.97;8.67;;;19.50;99.90;;;;;;6210007;22;20012;-85
2022/10/29 12:31:49;;;;;;;17.15;7.80;;;19.50;99.90;;;;;;6207915;22;20463;-85
2022/10/29 12:34:45;;;;;;;18.48;8.18;;;19.40;99.90;;;;;;6233093;22;20023;-85
2022/10/29 12:37:24;;;;;;;18.30;8.13;;;19.40;99.90;;;;;;6234351;22;20037;-85
2022/10/29 12:39:56;;;;;;;18.65;8.35;;;19.40;99.90;;;;;;6207292;22;20084;-85
2022/10/29 12:42:25;;;;;;;20.80;8.57;;;19.90;99.90;;;;;;6205103;22;20016;-86
2022/10/29 12:45:03;;;;;;;15.85;8.38;;;20.10;99.90;;;;;;6207129;22;20017;-85
2022/10/29 12:47:50;;;;;;;19.80;8.10;;;20.50;99.90;;;;;;6207313;22;20012;-84
2022/10/29 12:50:24;;;;;;;17.13;8.40;;;20.50;99.90;;;;;;6205274;22;20011;-85
2022/10/29 12:53:03;;;;;;;14.90;8.45;;;20.70;99.90;;;;;;6204079;22;20237;-86
2022/10/29 12:55:30;;;;;;;20.05;8.90;;;20.70;99.90;;;;;;6203167;22;20118;-85
2022/10/29 12:57:56;;;;;;;21.92;8.23;;;20.60;99.90;;;;;;6201993;22;20413;-84